Time;durP1;ratioP1;P1;durP2;ratioP2;P2;SDS_P1;SDS_P2;PMS_P1;PMS_P2;Temp;Humidity;BMP_temperature;BMP_pressure;BME280_temperature;BME280_humidity;BME280_pressure;Samples;Min_cycle;Max_cycle;Signal;HPM_P1;HPM_P2
2024/02/10 00:01:46;;;;;;;12.90;10.17;;;;;;;10.38;80.25;93666.31;5029042;28;20543;-68
2024/02/10 00:04:14;;;;;;;10.93;8.67;;;;;;;10.31;80.09;93671.25;5030104;28;21146;-69
2024/02/10 00:06:40;;;;;;;12.53;9.23;;;;;;;10.49;79.55;93686.38;5029570;28;20442;-69
2024/02/10 00:09:06;;;;;;;13.30;9.87;;;;;;;10.45;79.48;93682.38;5029124;28;20483;-69
2024/02/10 00:11:36;;;;;;;15.20;10.90;;;;;;;10.56;79.54;93690.13;5031037;28;21163;-70
2024/02/10 00:14:01;;;;;;;11.60;9.87;;;;;;;10.53;79.12;93678.09;5031808;28;20187;-69
2024/02/10 00:16:28;;;;;;;17.53;10.50;;;;;;;10.59;79.18;93682.81;5031236;28;20469;-68
2024/02/10 00:18:57;;;;;;;12.97;10.20;;;;;;;10.20;80.67;93667.88;5031080;28;20211;-69
2024/02/10 00:21:23;;;;;;;12.70;10.83;;;;;;;10.48;79.75;93664.56;5029158;28;20434;-69
2024/02/10 00:23:49;;;;;;;14.50;9.40;;;;;;;10.18;80.49;93661.00;5032641;28;20433;-68
2024/02/10 00:26:21;;;;;;;14.03;10.47;;;;;;;10.22;80.54;93665.97;5031925;28;20449;-69
2024/02/10 00:28:49;;;;;;;11.50;8.90;;;;;;;10.20;80.84;93646.91;5030696;28;20179;-69
2024/02/10 00:31:15;;;;;;;12.07;10.83;;;;;;;10.29;79.97;93648.78;5029975;28;20466;-68
2024/02/10 00:33:45;;;;;;;12.77;9.30;;;;;;;9.99;81.58;93645.16;5030740;28;20433;-70
2024/02/10 00:36:11;;;;;;;12.17;9.50;;;;;;;9.88;81.83;93629.56;5030691;28;22180;-69
2024/02/10 00:38:38;;;;;;;11.70;9.93;;;;;;;9.42;83.90;93639.50;5033065;28;20433;-69
2024/02/10 00:41:05;;;;;;;21.23;11.30;;;;;;;9.85;82.27;93654.22;5029894;28;20179;-68
2024/02/10 00:43:31;;;;;;;13.27;9.63;;;;;;;10.08;81.08;93644.38;5028313;28;20456;-69
2024/02/10 00:45:57;;;;;;;12.60;10.77;;;;;;;10.19;80.95;93646.09;5029322;28;21251;-69
2024/02/10 00:48:26;;;;;;;12.53;10.00;;;;;;;10.22;80.57;93648.44;5030426;28;20179;-67
2024/02/10 00:50:51;;;;;;;12.93;10.70;;;;;;;10.22;80.13;93640.56;5027540;28;20442;-68
2024/02/10 00:53:19;;;;;;;13.87;9.97;;;;;;;10.25;80.07;93637.72;5025117;28;20452;-70
2024/02/10 00:55:45;;;;;;;11.60;9.40;;;;;;;10.08;80.86;93627.84;5029887;28;20203;-69
2024/02/10 00:58:11;;;;;;;11.93;9.57;;;;;;;9.70;82.41;93624.09;5027604;28;20513;-69
2024/02/10 01:00:36;;;;;;;12.00;10.00;;;;;;;10.02;81.45;93625.78;5028690;28;21162;-68
2024/02/10 01:03:06;;;;;;;18.30;9.73;;;;;;;10.15;81.29;93623.72;5029533;28;20220;-68
2024/02/10 01:05:31;;;;;;;13.20;11.40;;;;;;;9.95;80.77;93628.09;5028805;28;20195;-68
2024/02/10 01:07:59;;;;;;;16.20;11.00;;;;;;;9.43;83.86;93627.25;5032345;28;20437;-69
2024/02/10 01:10:24;;;;;;;13.23;9.77;;;;;;;9.87;82.08;93631.34;5028093;28;20815;-70
2024/02/10 01:12:50;;;;;;;15.43;9.70;;;;;;;10.13;80.80;93626.50;5030489;28;20437;-67
2024/02/10 01:15:16;;;;;;;15.87;9.80;;;;;;;10.17;80.32;93632.28;5032273;28;20198;-69
2024/02/10 01:17:46;;;;;;;11.47;9.80;;;;;;;10.09;80.46;93619.84;5028476;28;20265;-68
2024/02/10 01:20:12;;;;;;;11.43;9.33;;;;;;;10.04;80.81;93622.06;5028703;28;20423;-68
2024/02/10 01:22:41;;;;;;;12.60;10.90;;;;;;;10.01;80.69;93616.22;5032554;28;20486;-67
2024/02/10 01:25:07;;;;;;;14.63;10.10;;;;;;;10.21;80.03;93623.22;5027300;28;20487;-68
2024/02/10 01:27:32;;;;;;;14.00;10.37;;;;;;;10.24;80.29;93624.72;5028387;28;20852;-69
2024/02/10 01:30:01;;;;;;;19.90;10.87;;;;;;;10.14;80.26;93614.22;5028471;28;20514;-69
2024/02/10 01:32:26;;;;;;;15.20;11.10;;;;;;;10.19;80.17;93612.03;5027082;28;20203;-68
2024/02/10 01:34:53;;;;;;;14.47;9.27;;;;;;;10.17;80.16;93608.72;5028552;28;20560;-69
2024/02/10 01:37:20;;;;;;;12.60;10.00;;;;;;;10.14;80.05;93614.22;5028245;28;20211;-69
2024/02/10 01:39:47;;;;;;;12.87;10.27;;;;;;;10.15;80.01;93618.50;5028755;28;20445;-68
2024/02/10 01:42:18;;;;;;;21.53;10.83;;;;;;;10.16;80.07;93622.78;5029370;28;20508;-67
2024/02/10 01:44:44;;;;;;;18.40;10.50;;;;;;;10.11;80.35;93622.31;5034455;28;20492;-68
2024/02/10 01:47:15;;;;;;;14.13;10.73;;;;;;;10.16;80.15;93628.03;5027792;28;20598;-69
2024/02/10 01:49:44;;;;;;;14.30;10.60;;;;;;;10.19;79.82;93627.75;5028485;28;21690;-70
2024/02/10 01:52:11;;;;;;;10.73;9.53;;;;;;;10.26;79.51;93621.00;5032279;28;20835;-69
2024/02/10 01:54:39;;;;;;;16.10;10.07;;;;;;;10.09;80.36;93624.28;5028225;28;20426;-68
2024/02/10 01:57:05;;;;;;;19.33;11.30;;;;;;;10.05;80.83;93622.88;5027489;28;20522;-66
2024/02/10 01:59:35;;;;;;;13.50;10.30;;;;;;;10.16;80.37;93609.69;5038715;28;20433;-68
2024/02/10 02:02:03;;;;;;;13.20;9.87;;;;;;;10.18;80.07;93610.34;5038174;28;20521;-69
2024/02/10 02:04:31;;;;;;;17.80;9.93;;;;;;;10.17;80.41;93611.31;5027439;28;20438;-68
2024/02/10 02:07:00;;;;;;;14.73;10.40;;;;;;;10.21;79.85;93615.34;5029383;28;20481;-68
2024/02/10 02:09:26;;;;;;;15.00;10.23;;;;;;;9.95;80.80;93610.56;5028007;28;20472;-67
2024/02/10 02:11:52;;;;;;;15.60;10.10;;;;;;;10.07;80.44;93610.47;5027985;28;20603;-69
2024/02/10 02:14:17;;;;;;;13.90;11.13;;;;;;;10.16;80.14;93607.88;5042260;28;20469;-70
2024/02/10 02:16:46;;;;;;;14.73;10.80;;;;;;;10.15;80.33;93605.38;5046668;28;20210;-69
2024/02/10 02:19:13;;;;;;;12.40;9.60;;;;;;;10.21;80.35;93607.47;5042805;28;20719;-69
2024/02/10 02:21:39;;;;;;;15.37;10.60;;;;;;;10.03;80.28;93607.28;5034621;28;21934;-66
2024/02/10 02:24:06;;;;;;;14.40;10.40;;;;;;;10.01;80.84;93603.13;5027992;28;20473;-67
2024/02/10 02:26:31;;;;;;;15.83;10.97;;;;;;;10.06;80.30;93603.56;5027347;28;20544;-70
2024/02/10 02:28:57;;;;;;;15.03;10.70;;;;;;;10.16;79.90;93609.69;5031213;28;20532;-67
2024/02/10 02:31:22;;;;;;;14.70;10.63;;;;;;;10.12;79.99;93600.41;5028344;28;20837;-67
2024/02/10 02:33:48;;;;;;;12.03;10.83;;;;;;;10.22;79.72;93611.75;5029291;28;20187;-69
2024/02/10 02:36:13;;;;;;;13.47;10.57;;;;;;;10.24;79.50;93606.38;5028243;28;20333;-67
2024/02/10 02:38:39;;;;;;;13.80;10.40;;;;;;;10.18;79.47;93610.34;5028231;28;20183;-68
2024/02/10 02:41:05;;;;;;;13.03;10.80;;;;;;;10.14;79.93;93611.59;5026373;28;21712;-69
2024/02/10 02:43:35;;;;;;;13.67;10.47;;;;;;;10.14;79.35;93601.13;5026198;28;20555;-68
2024/02/10 02:46:01;;;;;;;13.47;10.73;;;;;;;10.07;79.96;93600.81;5029445;28;20199;-68
2024/02/10 02:48:27;;;;;;;13.93;10.77;;;;;;;10.07;79.70;93606.06;5026718;28;20472;-68
2024/02/10 02:50:52;;;;;;;17.80;11.00;;;;;;;10.13;79.56;93604.69;5030228;28;20217;-68
2024/02/10 02:53:17;;;;;;;16.07;11.63;;;;;;;10.07;79.23;93600.00;5027113;28;20278;-69
2024/02/10 02:55:45;;;;;;;18.83;10.73;;;;;;;10.06;79.68;93593.06;5028488;28;20304;-69
2024/02/10 02:58:11;;;;;;;13.13;11.37;;;;;;;10.09;79.21;93593.66;5027499;28;20241;-68
2024/02/10 03:00:38;;;;;;;13.80;10.67;;;;;;;10.05;79.10;93594.88;5027957;28;20932;-68
2024/02/10 03:03:04;;;;;;;15.93;10.23;;;;;;;9.94;79.66;93592.34;5030194;28;20237;-68
2024/02/10 03:05:32;;;;;;;17.83;10.97;;;;;;;9.96;79.67;93588.63;5026637;28;21347;-68
2024/02/10 03:07:58;;;;;;;12.40;10.57;;;;;;;9.92;79.78;93586.41;5029000;28;20430;-68
2024/02/10 03:10:24;;;;;;;16.80;10.23;;;;;;;9.86;79.90;93586.97;5027786;28;20472;-68
2024/02/10 03:12:49;;;;;;;13.83;10.20;;;;;;;9.85;79.60;93580.91;5025592;28;20634;-68
2024/02/10 03:15:15;;;;;;;14.83;10.07;;;;;;;9.89;79.54;93597.97;5027050;28;20694;-68
2024/02/10 03:17:46;;;;;;;18.60;11.50;;;;;;;9.88;78.94;93585.88;5029997;28;20186;-68
2024/02/10 03:20:12;;;;;;;15.40;11.63;;;;;;;9.69;79.97;93584.00;5032096;28;20176;-69
2024/02/10 03:22:38;;;;;;;12.30;11.10;;;;;;;9.70;79.88;93588.25;5031638;28;20650;-68
2024/02/10 03:25:04;;;;;;;14.40;11.20;;;;;;;9.68;80.07;93578.88;5039793;28;20429;-68
2024/02/10 03:27:29;;;;;;;16.00;11.50;;;;;;;9.54;80.12;93580.91;5033111;28;20199;-69
2024/02/10 03:29:55;;;;;;;13.27;11.97;;;;;;;9.62;80.17;93575.00;5030986;28;21580;-68
2024/02/10 03:32:20;;;;;;;17.23;11.80;;;;;;;9.61;80.05;93567.28;5030462;28;20171;-68
2024/02/10 03:34:46;;;;;;;20.47;12.70;;;;;;;9.79;79.46;93563.09;5030614;28;20183;-67
2024/02/10 03:37:12;;;;;;;13.10;11.70;;;;;;;9.81;79.40;93560.34;5031036;28;20206;-69
2024/02/10 03:39:38;;;;;;;20.93;12.30;;;;;;;9.71;79.37;93541.97;5044364;28;20188;-68
2024/02/10 03:42:05;;;;;;;14.20;11.93;;;;;;;9.71;79.62;93539.34;5031664;28;20433;-68
2024/02/10 03:44:31;;;;;;;15.57;10.80;;;;;;;9.71;79.41;93532.31;5031258;28;20490;-68
2024/02/10 03:47:00;;;;;;;20.33;12.00;;;;;;;9.27;80.99;93530.88;5029899;28;20449;-68
2024/02/10 03:49:29;;;;;;;19.83;12.20;;;;;;;9.45;80.14;93531.94;5030797;28;22279;-68
2024/02/10 03:51:55;;;;;;;12.50;10.93;;;;;;;9.37;80.31;93529.13;5031998;28;20434;-69
2024/02/10 03:54:22;;;;;;;12.63;11.33;;;;;;;9.31;80.53;93532.28;5030229;28;20547;-69
2024/02/10 03:56:48;;;;;;;14.13;11.33;;;;;;;9.35;80.84;93528.44;5031848;28;20621;-69
2024/02/10 03:59:14;;;;;;;18.37;11.57;;;;;;;9.17;81.01;93523.00;5031890;28;20437;-68
2024/02/10 04:01:42;;;;;;;14.50;12.23;;;;;;;8.98;81.93;93528.94;5028728;28;20183;-68
2024/02/10 04:04:08;;;;;;;17.10;12.00;;;;;;;9.07;81.75;93528.19;5029848;28;20183;-68
2024/02/10 04:06:33;;;;;;;18.20;13.00;;;;;;;9.01;81.18;93522.63;5046957;28;20490;-68
2024/02/10 04:09:01;;;;;;;13.57;11.90;;;;;;;9.00;82.02;93529.66;5028879;28;20183;-67
2024/02/10 04:11:27;;;;;;;17.60;12.20;;;;;;;8.94;82.16;93532.75;5028293;28;20206;-68
2024/02/10 04:13:52;;;;;;;17.00;11.33;;;;;;;8.89;81.97;93529.72;5029269;28;20524;-68
2024/02/10 04:16:18;;;;;;;16.73;13.67;;;;;;;8.92;82.16;93536.47;5033699;28;20208;-68
2024/02/10 04:18:43;;;;;;;15.00;11.73;;;;;;;8.59;83.23;93536.50;5030302;28;20246;-69
2024/02/10 04:21:09;;;;;;;20.47;12.90;;;;;;;8.70;83.45;93546.09;5031535;28;20216;-68
2024/02/10 04:23:37;;;;;;;16.60;13.70;;;;;;;8.47;83.96;93553.19;5029012;28;20191;-68
2024/02/10 04:26:05;;;;;;;15.90;12.23;;;;;;;8.86;81.88;93564.78;5031551;28;20454;-68
2024/02/10 04:28:30;;;;;;;20.67;12.40;;;;;;;8.91;81.30;93559.19;5028735;28;20507;-69
2024/02/10 04:30:56;;;;;;;21.67;12.70;;;;;;;8.90;81.47;93553.13;5033038;28;21056;-68
2024/02/10 04:33:22;;;;;;;22.60;12.73;;;;;;;8.93;82.00;93556.41;5029703;28;20191;-68
2024/02/10 04:35:48;;;;;;;16.23;12.10;;;;;;;9.12;80.36;93564.41;5030846;28;20232;-68
2024/02/10 04:38:14;;;;;;;15.03;10.67;;;;;;;9.18;80.37;93571.72;5030215;28;20433;-69
2024/02/10 04:40:39;;;;;;;15.80;10.93;;;;;;;9.15;80.32;93576.41;5029373;28;20426;-68
2024/02/10 04:43:05;;;;;;;13.80;10.70;;;;;;;9.05;80.35;93573.72;5028360;28;20178;-67
2024/02/10 04:45:33;;;;;;;13.90;10.93;;;;;;;9.06;80.47;93567.53;5031703;28;20171;-67
2024/02/10 04:48:00;;;;;;;18.30;11.83;;;;;;;9.02;80.39;93564.31;5030186;28;20662;-67
2024/02/10 04:50:28;;;;;;;15.67;12.33;;;;;;;9.03;79.87;93566.00;5029803;28;20929;-66
2024/02/10 04:52:55;;;;;;;14.07;10.70;;;;;;;8.82;80.80;93576.44;5028447;28;20441;-68
2024/02/10 04:55:21;;;;;;;15.97;12.30;;;;;;;8.62;81.30;93570.25;5028200;28;21368;-69
2024/02/10 04:57:47;;;;;;;31.60;17.20;;;;;;;8.50;81.55;93563.38;5029702;28;20426;-68
2024/02/10 05:00:15;;;;;;;18.70;11.60;;;;;;;8.64;81.62;93557.84;5030567;28;20183;-68
2024/02/10 05:02:42;;;;;;;17.20;12.10;;;;;;;8.71;80.78;93549.53;5029379;28;20223;-69
2024/02/10 05:05:10;;;;;;;14.17;11.07;;;;;;;8.69;80.68;93557.47;5033126;28;20992;-69
2024/02/10 05:07:40;;;;;;;21.60;12.83;;;;;;;8.80;80.61;93554.81;5029177;28;20467;-69
2024/02/10 05:10:06;;;;;;;19.23;11.07;;;;;;;8.63;80.70;93553.59;5027457;28;20527;-68
2024/02/10 05:12:32;;;;;;;13.40;11.30;;;;;;;8.32;81.65;93554.41;5028731;28;20442;-67
2024/02/10 05:14:57;;;;;;;16.97;11.40;;;;;;;8.25;82.82;93547.06;5030125;28;20461;-68
2024/02/10 05:17:23;;;;;;;17.87;11.93;;;;;;;8.47;80.78;93555.81;5028686;28;20210;-68
2024/02/10 05:19:48;;;;;;;17.30;13.80;;;;;;;8.58;80.63;93558.38;5028374;28;20191;-69
2024/02/10 05:22:17;;;;;;;16.00;12.00;;;;;;;8.28;82.27;93549.41;5027851;28;20266;-68
2024/02/10 05:24:43;;;;;;;19.00;13.20;;;;;;;8.48;81.10;93545.25;5028167;28;20179;-68
2024/02/10 05:27:08;;;;;;;21.73;13.30;;;;;;;8.35;81.69;93547.16;5028575;28;20454;-68
2024/02/10 05:29:35;;;;;;;15.00;11.57;;;;;;;8.45;81.87;93552.47;5028202;28;20441;-68
2024/02/10 05:32:03;;;;;;;13.17;11.77;;;;;;;8.48;82.07;93552.25;5028923;28;20182;-68
2024/02/10 05:34:29;;;;;;;15.37;12.00;;;;;;;8.23;82.53;93559.41;5026262;28;20947;-69
2024/02/10 05:36:56;;;;;;;27.27;11.33;;;;;;;7.71;84.77;93563.53;5026191;28;20465;-68
2024/02/10 05:39:22;;;;;;;27.57;11.80;;;;;;;7.71;84.31;93558.31;5028759;28;20184;-68
2024/02/10 05:41:48;;;;;;;19.40;13.20;;;;;;;7.98;84.41;93550.06;5029303;28;20442;-69
2024/02/10 05:44:16;;;;;;;12.17;10.60;;;;;;;7.89;84.64;93550.84;5027674;28;20179;-66
2024/02/10 05:46:45;;;;;;;32.87;12.77;;;;;;;7.55;85.82;93550.84;5029213;28;20195;-67
2024/02/10 05:49:11;;;;;;;34.30;12.57;;;;;;;7.60;85.00;93551.31;5026303;28;20491;-67
2024/02/10 05:51:40;;;;;;;16.13;11.90;;;;;;;7.83;84.23;93552.13;5028809;28;20508;-67
2024/02/10 05:54:05;;;;;;;14.93;11.83;;;;;;;7.91;85.01;93550.69;5027608;28;20199;-67
2024/02/10 05:56:33;;;;;;;14.97;11.40;;;;;;;8.05;83.65;93560.88;5028015;28;20583;-69
2024/02/10 05:58:58;;;;;;;13.93;11.17;;;;;;;8.28;82.65;93551.22;5028825;28;20175;-68
2024/02/10 06:01:24;;;;;;;14.87;11.67;;;;;;;8.37;82.93;93541.81;5030260;28;20428;-67
2024/02/10 06:03:52;;;;;;;11.77;9.63;;;;;;;8.57;81.18;93541.03;5028485;28;20214;-67
2024/02/10 06:06:19;;;;;;;15.20;11.37;;;;;;;8.54;82.08;93546.50;5030200;28;20228;-66
2024/02/10 06:08:45;;;;;;;14.97;11.77;;;;;;;8.72;81.60;93543.34;5039623;28;20433;-67
2024/02/10 06:11:11;;;;;;;18.20;11.20;;;;;;;8.78;81.21;93540.22;5047037;28;20441;-67
2024/02/10 06:13:37;;;;;;;23.07;14.00;;;;;;;8.72;81.56;93546.78;5030189;28;20530;-68
2024/02/10 06:16:05;;;;;;;14.90;12.87;;;;;;;8.69;82.31;93537.44;5027550;28;20465;-67
2024/02/10 06:18:31;;;;;;;15.57;11.67;;;;;;;8.67;81.92;93528.88;5027319;28;20179;-68
2024/02/10 06:20:57;;;;;;;14.90;12.70;;;;;;;8.76;82.08;93531.66;5027797;28;20441;-68
2024/02/10 06:23:26;;;;;;;14.40;12.90;;;;;;;8.83;81.62;93532.81;5028538;28;20249;-70
2024/02/10 06:25:54;;;;;;;15.30;12.60;;;;;;;8.80;82.21;93526.06;5028915;28;20448;-68
2024/02/10 06:28:21;;;;;;;18.43;13.37;;;;;;;8.75;81.91;93528.22;5027300;28;21360;-68
2024/02/10 06:30:49;;;;;;;16.77;13.20;;;;;;;8.94;81.87;93531.94;5031965;28;20433;-68
2024/02/10 06:33:23;;;;;;;24.00;12.80;;;;;;;8.98;81.16;93531.56;5025656;28;20437;-68
2024/02/10 06:35:49;;;;;;;17.70;13.17;;;;;;;8.98;81.43;93526.31;5027917;28;20497;-68
2024/02/10 06:38:15;;;;;;;18.80;13.03;;;;;;;9.01;81.14;93533.09;5030497;28;20497;-68
2024/02/10 06:40:44;;;;;;;19.23;13.47;;;;;;;8.97;81.02;93535.13;5027887;28;20228;-67
2024/02/10 06:43:12;;;;;;;17.23;13.60;;;;;;;9.04;80.99;93538.06;5027863;28;20906;-68
2024/02/10 06:45:41;;;;;;;21.17;13.67;;;;;;;9.01;81.13;93536.53;5026908;28;20441;-68
2024/02/10 06:48:09;;;;;;;21.80;15.27;;;;;;;8.96;81.17;93546.53;5024515;28;20426;-69
2024/02/10 06:50:35;;;;;;;22.27;15.20;;;;;;;8.99;80.91;93540.22;5027147;28;20543;-69
2024/02/10 06:53:00;;;;;;;22.77;14.40;;;;;;;8.99;81.28;93535.00;5025781;28;20437;-69
2024/02/10 06:55:27;;;;;;;18.23;14.07;;;;;;;8.92;81.69;93529.44;5029422;28;20710;-68
2024/02/10 06:57:55;;;;;;;24.20;14.30;;;;;;;8.90;81.73;93537.44;5027801;28;20658;-69
2024/02/10 07:00:22;;;;;;;16.80;13.40;;;;;;;8.81;82.58;93532.13;5027104;28;21002;-69
2024/02/10 07:02:48;;;;;;;21.97;14.27;;;;;;;8.80;82.63;93541.75;5026353;28;20524;-68
2024/02/10 07:05:15;;;;;;;19.80;16.20;;;;;;;8.89;82.00;93530.53;5025428;28;20691;-68
2024/02/10 07:07:41;;;;;;;20.87;14.57;;;;;;;8.97;81.48;93532.50;5028057;28;20537;-69
2024/02/10 07:10:15;;;;;;;21.63;14.93;;;;;;;8.99;81.36;93535.81;5030432;28;20441;-68
2024/02/10 07:12:45;;;;;;;25.90;15.60;;;;;;;8.99;81.44;93529.75;5035851;28;20437;-69
2024/02/10 07:15:18;;;;;;;19.90;15.80;;;;;;;8.79;82.35;93528.81;5025802;28;20453;-68
2024/02/10 07:17:49;;;;;;;19.90;14.77;;;;;;;8.84;82.49;93527.47;5026348;28;20495;-69
2024/02/10 07:20:20;;;;;;;23.10;14.60;;;;;;;8.90;82.56;93531.34;5028013;28;20774;-68
2024/02/10 07:22:49;;;;;;;24.33;15.50;;;;;;;9.02;81.90;93532.13;5026246;28;20436;-68
2024/02/10 07:25:24;;;;;;;22.40;15.90;;;;;;;8.90;82.32;93532.22;5034120;28;20430;-69
2024/02/10 07:27:50;;;;;;;22.20;14.83;;;;;;;8.76;83.04;93519.41;5029650;28;20446;-67
2024/02/10 07:30:19;;;;;;;21.77;16.10;;;;;;;8.75;83.20;93519.56;5029837;28;20437;-70
2024/02/10 07:32:48;;;;;;;22.60;16.80;;;;;;;8.84;82.37;93529.25;5026655;28;20444;-69
2024/02/10 07:35:14;;;;;;;25.37;16.03;;;;;;;8.96;82.17;93533.47;5028791;28;20532;-68
2024/02/10 07:37:40;;;;;;;27.60;15.53;;;;;;;8.89;82.91;93538.38;5025906;28;20464;-68
2024/02/10 07:40:10;;;;;;;23.33;16.20;;;;;;;8.78;83.89;93550.69;5025698;28;20433;-69
2024/02/10 07:42:36;;;;;;;23.47;16.20;;;;;;;8.91;82.68;93538.25;5030266;28;20455;-69
2024/02/10 07:45:02;;;;;;;23.70;14.10;;;;;;;9.06;82.22;93541.38;5027382;28;20418;-70
2024/02/10 07:47:28;;;;;;;23.93;15.77;;;;;;;8.89;82.31;93541.00;5024728;28;20272;-67
2024/02/10 07:49:54;;;;;;;22.83;16.50;;;;;;;9.03;82.13;93545.06;5042601;28;20506;-68
2024/02/10 07:52:20;;;;;;;20.30;13.70;;;;;;;9.06;81.96;93536.97;5045840;28;20330;-68
2024/02/10 07:54:47;;;;;;;22.47;15.40;;;;;;;9.05;81.74;93540.56;5045105;28;20924;-69
2024/02/10 07:57:19;;;;;;;31.63;15.17;;;;;;;9.09;81.92;93534.13;5036109;28;20450;-67
2024/02/10 07:59:52;;;;;;;17.13;13.77;;;;;;;9.02;81.90;93527.72;5039962;28;20516;-71
2024/02/10 08:02:21;;;;;;;23.37;13.97;;;;;;;9.11;80.60;93528.72;5047398;28;20444;-69
2024/02/10 08:04:54;;;;;;;20.03;12.80;;;;;;;9.20;81.09;93516.66;5049591;28;20431;-69
2024/02/10 08:07:21;;;;;;;16.37;12.90;;;;;;;9.26;80.13;93522.22;5050578;28;20479;-66
2024/02/10 08:09:47;;;;;;;17.67;12.87;;;;;;;9.23;80.61;93522.47;5050225;28;20441;-70
2024/02/10 08:12:20;;;;;;;16.17;13.47;;;;;;;9.16;81.17;93516.09;5049701;28;20421;-68
2024/02/10 08:14:50;;;;;;;18.43;15.77;;;;;;;9.02;81.13;93529.50;5049597;28;20420;-68
2024/02/10 08:17:20;;;;;;;14.23;12.60;;;;;;;9.07;80.89;93524.72;5037390;28;21108;-68
2024/02/10 08:19:52;;;;;;;14.77;13.17;;;;;;;8.79;82.58;93523.59;5030255;28;20487;-68
2024/02/10 08:22:18;;;;;;;15.83;13.73;;;;;;;8.88;82.78;93521.03;5030208;28;20406;-67
2024/02/10 08:24:43;;;;;;;17.27;13.97;;;;;;;8.89;82.85;93522.69;5029979;28;20847;-67
2024/02/10 08:27:10;;;;;;;18.50;13.07;;;;;;;8.48;83.40;93526.94;5030653;28;20437;-67
2024/02/10 08:29:35;;;;;;;19.40;13.50;;;;;;;8.47;84.98;93527.06;5028708;28;20289;-68
2024/02/10 08:32:04;;;;;;;36.73;17.43;;;;;;;8.59;84.52;93525.22;5032548;28;20513;-66
2024/02/10 08:34:31;;;;;;;19.00;14.47;;;;;;;8.17;86.19;93532.94;5030473;28;20276;-67
2024/02/10 08:36:58;;;;;;;18.80;13.80;;;;;;;8.46;85.64;93541.09;5031580;28;20504;-67
2024/02/10 08:39:23;;;;;;;19.97;14.80;;;;;;;8.59;85.15;93533.88;5033182;28;20444;-67
2024/02/10 08:41:50;;;;;;;18.47;14.00;;;;;;;8.55;85.62;93545.56;5038737;28;20437;-66
2024/02/10 08:44:15;;;;;;;27.90;13.27;;;;;;;8.21;86.06;93539.59;5047809;28;20186;-66
2024/02/10 08:46:42;;;;;;;24.03;14.87;;;;;;;8.28;86.84;93551.22;5032994;28;20464;-69
2024/02/10 08:49:11;;;;;;;15.80;14.03;;;;;;;8.35;86.29;93549.75;5030905;28;20203;-67
2024/02/10 08:51:37;;;;;;;17.60;13.90;;;;;;;8.39;85.48;93552.97;5031642;28;20461;-68
2024/02/10 08:54:10;;;;;;;16.10;13.73;;;;;;;8.42;86.34;93553.56;5031210;28;20436;-67
2024/02/10 08:56:40;;;;;;;16.40;13.10;;;;;;;8.59;85.53;93551.38;5028928;28;20260;-67
2024/02/10 08:59:06;;;;;;;18.70;13.73;;;;;;;8.88;83.25;93555.03;5031988;28;20444;-66
2024/02/10 09:01:31;;;;;;;19.20;13.60;;;;;;;8.93;83.38;93552.03;5029687;28;20425;-69
2024/02/10 09:03:58;;;;;;;23.73;13.90;;;;;;;8.98;82.80;93549.88;5031923;28;20178;-68
2024/02/10 09:06:23;;;;;;;21.90;14.30;;;;;;;8.80;83.66;93552.22;5029411;28;20569;-69
2024/02/10 09:08:52;;;;;;;15.40;12.80;;;;;;;8.77;83.62;93549.03;5030277;28;20461;-68
2024/02/10 09:11:18;;;;;;;15.80;13.27;;;;;;;8.95;82.63;93546.66;5030620;28;20207;-71
2024/02/10 09:13:48;;;;;;;14.80;13.10;;;;;;;8.63;83.91;93545.75;5031457;28;20426;-68
2024/02/10 09:16:13;;;;;;;14.30;11.87;;;;;;;8.55;84.79;93549.94;5032048;28;20481;-69
2024/02/10 09:18:42;;;;;;;17.93;13.33;;;;;;;8.62;84.28;93554.56;5032071;28;20452;-67
2024/02/10 09:21:08;;;;;;;19.43;14.67;;;;;;;8.54;84.88;93559.56;5032572;28;20261;-69
2024/02/10 09:23:33;;;;;;;19.10;14.87;;;;;;;8.43;85.75;93551.78;5031986;28;20437;-68
2024/02/10 09:25:59;;;;;;;23.37;13.97;;;;;;;8.30;85.26;93543.25;5039553;28;20937;-68
2024/02/10 09:28:29;;;;;;;15.50;13.80;;;;;;;8.58;85.18;93536.66;5048337;28;20532;-67
2024/02/10 09:30:54;;;;;;;20.43;14.10;;;;;;;8.22;86.17;93541.25;5041144;28;20210;-70
2024/02/10 09:33:21;;;;;;;19.00;14.13;;;;;;;8.33;86.23;93537.78;5049240;28;21017;-69
2024/02/10 09:35:48;;;;;;;18.10;15.73;;;;;;;8.05;88.28;93533.00;5038839;28;20273;-67
2024/02/10 09:38:14;;;;;;;20.77;15.90;;;;;;;8.20;87.92;93527.50;5027292;28;20414;-68
2024/02/10 09:40:40;;;;;;;19.90;14.43;;;;;;;8.16;88.23;93534.72;5027119;28;20945;-69
2024/02/10 09:43:09;;;;;;;20.60;15.50;;;;;;;8.23;88.11;93528.06;5034319;28;20462;-68
2024/02/10 09:45:41;;;;;;;19.67;15.23;;;;;;;8.45;87.60;93531.56;5028327;28;20187;-69
2024/02/10 09:48:08;;;;;;;17.27;14.20;;;;;;;8.26;87.36;93519.16;5028321;28;20940;-69
2024/02/10 09:50:34;;;;;;;18.60;13.83;;;;;;;7.66;90.38;93529.16;5030375;28;20657;-67
2024/02/10 09:53:00;;;;;;;25.30;16.50;;;;;;;7.99;88.60;93532.66;5027939;28;20453;-67
2024/02/10 09:55:25;;;;;;;27.17;16.27;;;;;;;8.00;88.54;93531.69;5028660;28;20305;-68
2024/02/10 09:57:53;;;;;;;22.37;15.23;;;;;;;8.15;87.94;93527.00;5029622;28;20186;-68
2024/02/10 10:00:19;;;;;;;15.50;13.67;;;;;;;8.05;88.58;93529.53;5028236;28;20259;-70
2024/02/10 10:02:51;;;;;;;26.97;15.37;;;;;;;7.93;89.10;93522.69;5027874;28;20454;-69
2024/02/10 10:05:22;;;;;;;23.13;13.97;;;;;;;7.83;89.42;93520.81;5028029;28;20181;-69
2024/02/10 10:07:52;;;;;;;19.27;15.30;;;;;;;8.08;89.10;93513.63;5030027;28;20429;-68
2024/02/10 10:10:21;;;;;;;20.60;14.80;;;;;;;8.21;88.43;93516.09;5029026;28;20433;-68
2024/02/10 10:12:47;;;;;;;15.90;13.63;;;;;;;8.22;87.85;93502.91;5031486;28;20476;-68
2024/02/10 10:15:13;;;;;;;18.43;14.30;;;;;;;8.58;86.27;93494.81;5029276;28;20469;-69
2024/02/10 10:17:38;;;;;;;15.20;13.33;;;;;;;8.35;86.69;93481.81;5031720;28;20210;-68
2024/02/10 10:20:04;;;;;;;22.57;14.30;;;;;;;8.47;85.25;93474.78;5043404;28;20418;-70
2024/02/10 10:22:34;;;;;;;16.37;14.07;;;;;;;8.41;85.28;93478.75;5028166;28;20180;-68
2024/02/10 10:25:02;;;;;;;14.17;12.67;;;;;;;7.98;87.75;93482.19;5029564;28;20438;-69
2024/02/10 10:27:29;;;;;;;15.70;12.43;;;;;;;7.75;89.28;93481.44;5026694;28;20457;-68
2024/02/10 10:29:54;;;;;;;22.00;13.70;;;;;;;8.08;88.83;93469.25;5025419;28;20524;-68
2024/02/10 10:32:22;;;;;;;19.17;13.37;;;;;;;8.49;86.13;93454.59;5028252;28;20931;-68
2024/02/10 10:34:48;;;;;;;16.10;13.57;;;;;;;8.66;84.99;93456.63;5025922;28;20269;-69
2024/02/10 10:37:16;;;;;;;13.70;11.23;;;;;;;8.48;85.25;93447.72;5022507;28;20489;-69
2024/02/10 10:39:45;;;;;;;13.33;12.00;;;;;;;8.67;84.45;93450.44;5023826;28;20446;-68
2024/02/10 10:42:13;;;;;;;14.47;11.13;;;;;;;8.52;85.02;93445.66;5026673;28;20525;-68
2024/02/10 10:44:39;;;;;;;13.90;12.20;;;;;;;8.25;85.15;93445.19;5027010;28;20988;-68
2024/02/10 10:47:07;;;;;;;12.60;11.40;;;;;;;8.13;87.13;93432.31;5025883;28;20488;-70
2024/02/10 10:49:32;;;;;;;16.33;11.13;;;;;;;8.07;87.58;93424.00;5025475;28;20453;-68
2024/02/10 10:52:03;;;;;;;13.50;11.60;;;;;;;8.56;86.36;93408.69;5023239;28;20895;-67
2024/02/10 10:54:37;;;;;;;13.13;11.73;;;;;;;8.57;85.89;93401.66;5023790;28;20184;-68
2024/02/10 10:57:12;;;;;;;14.50;12.33;;;;;;;8.82;84.63;93388.19;5026491;28;20473;-69
2024/02/10 10:59:40;;;;;;;14.77;13.30;;;;;;;8.68;85.43;93385.91;5025833;28;20421;-69
2024/02/10 11:02:12;;;;;;;13.80;11.97;;;;;;;8.74;85.07;93380.19;5026747;28;20563;-70
2024/02/10 11:04:38;;;;;;;13.90;12.40;;;;;;;8.95;84.02;93376.66;5021043;28;20434;-69
2024/02/10 11:07:09;;;;;;;13.80;12.40;;;;;;;8.75;84.26;93376.59;5029646;28;20505;-69
2024/02/10 11:09:48;;;;;;;14.50;12.87;;;;;;;8.70;85.35;93378.78;5030655;28;20507;-69
2024/02/10 11:12:16;;;;;;;18.17;14.17;;;;;;;8.56;85.80;93382.56;5024257;28;20800;-69
2024/02/10 11:14:52;;;;;;;14.03;12.67;;;;;;;8.84;84.54;93391.50;5026352;28;20489;-69
2024/02/10 11:17:18;;;;;;;16.53;14.23;;;;;;;8.33;85.89;93404.53;5027074;28;21247;-68
2024/02/10 11:20:00;;;;;;;16.17;14.50;;;;;;;8.34;86.77;93406.16;5025266;28;20532;-69
2024/02/10 11:22:33;;;;;;;15.03;12.77;;;;;;;8.37;86.62;93416.38;5024609;28;20187;-69
2024/02/10 11:25:00;;;;;;;17.67;14.00;;;;;;;8.39;86.82;93406.63;5025892;28;20438;-70